sensor_id;sensor_type;location;lat;lon;timestamp;pressure;altitude;pressure_sealevel;temperature;humidity
22830;BME280;11581;51.250;6.778;2023-04-30T00:01:58;101834.81;;;12.00;58.90
22830;BME280;11581;51.250;6.778;2023-04-30T00:04:24;101687.31;;;11.12;58.82
22830;BME280;11581;51.250;6.778;2023-04-30T00:06:51;101839.84;;;11.93;59.13
22830;BME280;11581;51.250;6.778;2023-04-30T00:09:17;101721.78;;;11.15;59.16
22830;BME280;11581;51.250;6.778;2023-04-30T00:11:44;101802.66;;;11.70;59.21
22830;BME280;11581;51.250;6.778;2023-04-30T00:14:11;101801.50;;;11.63;59.03
22830;BME280;11581;51.250;6.778;2023-04-30T00:16:37;101848.03;;;11.81;59.29
22830;BME280;11581;51.250;6.778;2023-04-30T00:19:03;101665.38;;;10.77;59.27
22830;BME280;11581;51.250;6.778;2023-04-30T00:21:30;101771.44;;;11.38;59.50
22830;BME280;11581;51.250;6.778;2023-04-30T00:23:57;101763.59;;;11.26;59.39
22830;BME280;11581;51.250;6.778;2023-04-30T00:26:24;101831.31;;;11.68;59.63
22830;BME280;11581;51.250;6.778;2023-04-30T00:28:51;101559.53;;;9.93;59.68
22830;BME280;11581;51.250;6.778;2023-04-30T00:31:17;101649.03;;;10.39;59.82
22830;BME280;11581;51.250;6.778;2023-04-30T00:33:44;101700.31;;;10.74;59.78
22830;BME280;11581;51.250;6.778;2023-04-30T00:36:11;101837.56;;;11.57;59.96
22830;BME280;11581;51.250;6.778;2023-04-30T00:38:37;101851.16;;;11.54;60.20
22830;BME280;11581;51.250;6.778;2023-04-30T00:41:04;101801.88;;;11.15;60.14
22830;BME280;11581;51.250;6.778;2023-04-30T00:43:31;101785.97;;;11.14;60.16
22830;BME280;11581;51.250;6.778;2023-04-30T00:45:58;101700.59;;;10.60;60.22
22830;BME280;11581;51.250;6.778;2023-04-30T00:48:25;101602.53;;;9.99;60.38
22830;BME280;11581;51.250;6.778;2023-04-30T00:50:52;101846.22;;;11.38;60.13
22830;BME280;11581;51.250;6.778;2023-04-30T00:53:18;101752.72;;;10.75;60.60
22830;BME280;11581;51.250;6.778;2023-04-30T00:55:47;101756.84;;;10.79;60.96
22830;BME280;11581;51.250;6.778;2023-04-30T00:58:14;101782.41;;;10.93;60.82
22830;BME280;11581;51.250;6.778;2023-04-30T01:00:41;101674.25;;;10.24;60.91
22830;BME280;11581;51.250;6.778;2023-04-30T01:03:12;101788.59;;;10.93;61.13
22830;BME280;11581;51.250;6.778;2023-04-30T01:05:39;101846.53;;;11.24;61.19
22830;BME280;11581;51.250;6.778;2023-04-30T01:08:06;101779.03;;;10.69;61.05
22830;BME280;11581;51.250;6.778;2023-04-30T01:10:39;101801.22;;;10.91;61.90
22830;BME280;11581;51.250;6.778;2023-04-30T01:13:12;101843.63;;;11.16;62.24
22830;BME280;11581;51.250;6.778;2023-04-30T01:15:49;101841.94;;;11.15;62.36
22830;BME280;11581;51.250;6.778;2023-04-30T01:18:33;101841.34;;;11.12;62.59
22830;BME280;11581;51.250;6.778;2023-04-30T01:21:06;101818.44;;;10.98;62.30
22830;BME280;11581;51.250;6.778;2023-04-30T01:29:35;101611.41;;;9.67;61.24
22830;BME280;11581;51.250;6.778;2023-04-30T01:32:04;101837.00;;;11.00;61.44
22830;BME280;11581;51.250;6.778;2023-04-30T01:34:31;101787.41;;;10.64;61.52
22830;BME280;11581;51.250;6.778;2023-04-30T01:37:22;101760.41;;;10.47;63.52
22830;BME280;11581;51.250;6.778;2023-04-30T01:43:29;101837.97;;;10.88;63.31
22830;BME280;11581;51.250;6.778;2023-04-30T01:46:27;101710.34;;;10.06;63.32
22830;BME280;11581;51.250;6.778;2023-04-30T01:49:31;101842.84;;;10.83;63.41
22830;BME280;11581;51.250;6.778;2023-04-30T01:52:08;101839.56;;;10.79;62.77
22830;BME280;11581;51.250;6.778;2023-04-30T01:54:50;101839.81;;;10.76;62.87
22830;BME280;11581;51.250;6.778;2023-04-30T01:57:27;101650.47;;;9.55;63.25
22830;BME280;11581;51.250;6.778;2023-04-30T01:59:54;101520.91;;;8.77;62.14
22830;BME280;11581;51.250;6.778;2023-04-30T02:02:21;101843.09;;;10.69;62.56
22830;BME280;11581;51.250;6.778;2023-04-30T02:04:49;101807.22;;;10.51;62.58
22830;BME280;11581;51.250;6.778;2023-04-30T02:07:24;101810.00;;;10.49;63.42
22830;BME280;11581;51.250;6.778;2023-04-30T02:09:54;101785.00;;;10.28;62.65
22830;BME280;11581;51.250;6.778;2023-04-30T02:12:21;101777.50;;;10.22;62.77
22830;BME280;11581;51.250;6.778;2023-04-30T02:14:47;101673.84;;;9.52;62.91
22830;BME280;11581;51.250;6.778;2023-04-30T02:17:14;101820.44;;;10.52;62.93
22830;BME280;11581;51.250;6.778;2023-04-30T02:19:40;101734.56;;;9.81;62.67
22830;BME280;11581;51.250;6.778;2023-04-30T02:22:07;101638.31;;;9.29;62.96
22830;BME280;11581;51.250;6.778;2023-04-30T02:24:34;101845.66;;;10.59;63.08
22830;BME280;11581;51.250;6.778;2023-04-30T02:27:01;101794.22;;;10.24;63.06
22830;BME280;11581;51.250;6.778;2023-04-30T02:29:28;101806.00;;;10.33;63.08
22830;BME280;11581;51.250;6.778;2023-04-30T02:31:57;101816.53;;;10.34;63.58
22830;BME280;11581;51.250;6.778;2023-04-30T02:34:24;101619.16;;;9.02;63.04
22830;BME280;11581;51.250;6.778;2023-04-30T02:36:50;101738.06;;;9.82;62.86
22830;BME280;11581;51.250;6.778;2023-04-30T02:39:17;101855.59;;;10.46;63.24
22830;BME280;11581;51.250;6.778;2023-04-30T02:41:43;101848.66;;;10.44;63.38
22830;BME280;11581;51.250;6.778;2023-04-30T02:44:10;101743.25;;;9.72;63.39
22830;BME280;11581;51.250;6.778;2023-04-30T02:46:37;101747.38;;;9.65;63.31
22830;BME280;11581;51.250;6.778;2023-04-30T02:49:03;101843.22;;;10.34;63.58
22830;BME280;11581;51.250;6.778;2023-04-30T02:51:30;101846.97;;;10.32;63.44
22830;BME280;11581;51.250;6.778;2023-04-30T02:53:57;101791.00;;;9.97;63.58
22830;BME280;11581;51.250;6.778;2023-04-30T02:56:23;101720.56;;;9.56;63.69
22830;BME280;11581;51.250;6.778;2023-04-30T02:58:50;101843.31;;;10.22;63.88
22830;BME280;11581;51.250;6.778;2023-04-30T03:01:16;101791.84;;;9.87;63.84
22830;BME280;11581;51.250;6.778;2023-04-30T03:03:43;101721.63;;;9.42;63.99
22830;BME280;11581;51.250;6.778;2023-04-30T03:06:09;101599.47;;;8.70;64.00
22830;BME280;11581;51.250;6.778;2023-04-30T03:08:35;101841.72;;;10.08;64.43
22830;BME280;11581;51.250;6.778;2023-04-30T03:11:02;101837.44;;;10.06;64.25
22830;BME280;11581;51.250;6.778;2023-04-30T03:13:28;101850.03;;;10.04;64.44
22830;BME280;11581;51.250;6.778;2023-04-30T03:15:59;101698.31;;;9.11;65.14
22830;BME280;11581;51.250;6.778;2023-04-30T03:18:27;101849.50;;;9.99;64.49
22830;BME280;11581;51.250;6.778;2023-04-30T03:20:53;101776.47;;;9.45;64.33
22830;BME280;11581;51.250;6.778;2023-04-30T03:23:20;101854.47;;;9.92;64.67
22830;BME280;11581;51.250;6.778;2023-04-30T03:25:46;101815.78;;;9.76;64.65
22830;BME280;11581;51.250;6.778;2023-04-30T03:28:13;101844.28;;;9.86;64.78
22830;BME280;11581;51.250;6.778;2023-04-30T03:30:40;101813.84;;;9.67;64.96
22830;BME280;11581;51.250;6.778;2023-04-30T03:33:06;101593.47;;;8.32;65.27
22830;BME280;11581;51.250;6.778;2023-04-30T03:35:33;101845.72;;;9.79;65.03
22830;BME280;11581;51.250;6.778;2023-04-30T03:38:00;101840.09;;;9.71;64.97
22830;BME280;11581;51.250;6.778;2023-04-30T03:40:27;101846.19;;;9.73;65.11
22830;BME280;11581;51.250;6.778;2023-04-30T03:42:54;101818.38;;;9.54;65.09
22830;BME280;11581;51.250;6.778;2023-04-30T03:45:20;101709.59;;;8.91;65.05
22830;BME280;11581;51.250;6.778;2023-04-30T03:47:47;101839.09;;;9.61;65.15
22830;BME280;11581;51.250;6.778;2023-04-30T03:50:16;101570.53;;;7.95;65.66
22830;BME280;11581;51.250;6.778;2023-04-30T03:52:43;101731.38;;;8.96;65.22
22830;BME280;11581;51.250;6.778;2023-04-30T03:55:12;101837.66;;;9.57;65.26
22830;BME280;11581;51.250;6.778;2023-04-30T03:57:39;101849.03;;;9.59;65.48
22830;BME280;11581;51.250;6.778;2023-04-30T04:00:06;101717.81;;;8.88;65.61
22830;BME280;11581;51.250;6.778;2023-04-30T04:02:38;101749.88;;;8.97;65.76
22830;BME280;11581;51.250;6.778;2023-04-30T04:05:08;101847.56;;;9.55;65.71
22830;BME280;11581;51.250;6.778;2023-04-30T04:07:35;101729.72;;;8.82;65.41
22830;BME280;11581;51.250;6.778;2023-04-30T04:10:01;101799.72;;;9.19;65.94
22830;BME280;11581;51.250;6.778;2023-04-30T04:12:29;101841.75;;;9.50;66.14
22830;BME280;11581;51.250;6.778;2023-04-30T04:14:55;101827.63;;;9.37;66.20
22830;BME280;11581;51.250;6.778;2023-04-30T04:17:22;101875.59;;;9.48;65.88
22830;BME280;11581;51.250;6.778;2023-04-30T04:19:48;101849.84;;;9.49;66.00
22830;BME280;11581;51.250;6.778;2023-04-30T04:22:16;101702.22;;;8.47;66.20
22830;BME280;11581;51.250;6.778;2023-04-30T04:24:44;101855.28;;;9.47;66.38
22830;BME280;11581;51.250;6.778;2023-04-30T04:27:16;101849.09;;;9.47;66.47
22830;BME280;11581;51.250;6.778;2023-04-30T04:29:43;101856.13;;;9.48;66.41
22830;BME280;11581;51.250;6.778;2023-04-30T04:32:10;101642.72;;;8.25;66.63
22830;BME280;11581;51.250;6.778;2023-04-30T04:34:39;101790.72;;;9.09;66.63
22830;BME280;11581;51.250;6.778;2023-04-30T04:37:07;101779.47;;;9.05;67.41
22830;BME280;11581;51.250;6.778;2023-04-30T04:39:34;101813.81;;;9.32;68.03
22830;BME280;11581;51.250;6.778;2023-04-30T04:42:02;101666.84;;;8.58;68.40
22830;BME280;11581;51.250;6.778;2023-04-30T04:44:29;101866.72;;;9.95;69.06
22830;BME280;11581;51.250;6.778;2023-04-30T04:46:56;101876.38;;;10.19;69.51
22830;BME280;11581;51.250;6.778;2023-04-30T04:49:23;101794.16;;;10.02;69.67
22830;BME280;11581;51.250;6.778;2023-04-30T04:51:50;101804.91;;;10.46;69.84
22830;BME280;11581;51.250;6.778;2023-04-30T04:54:17;101866.69;;;11.17;69.46
22830;BME280;11581;51.250;6.778;2023-04-30T04:56:43;101872.28;;;11.57;68.83
22830;BME280;11581;51.250;6.778;2023-04-30T04:59:09;101826.47;;;11.73;68.46
22830;BME280;11581;51.250;6.778;2023-04-30T05:01:36;101771.03;;;11.75;67.93
22830;BME280;11581;51.250;6.778;2023-04-30T05:04:04;101757.47;;;12.08;67.28
22830;BME280;11581;51.250;6.778;2023-04-30T05:06:30;101832.50;;;13.06;66.83
22830;BME280;11581;51.250;6.778;2023-04-30T05:08:57;101871.50;;;13.86;66.00
22830;BME280;11581;51.250;6.778;2023-04-30T05:11:23;101674.91;;;13.20;64.85
22830;BME280;11581;51.250;6.778;2023-04-30T05:13:50;101864.31;;;14.98;63.69
22830;BME280;11581;51.250;6.778;2023-04-30T05:16:17;101658.53;;;14.25;62.15
22830;BME280;11581;51.250;6.778;2023-04-30T05:18:43;101828.63;;;15.85;60.98
22830;BME280;11581;51.250;6.778;2023-04-30T05:21:09;101772.16;;;16.11;59.68
22830;BME280;11581;51.250;6.778;2023-04-30T05:23:36;101851.13;;;17.12;58.38
22830;BME280;11581;51.250;6.778;2023-04-30T05:26:02;101877.75;;;17.81;57.03
22830;BME280;11581;51.250;6.778;2023-04-30T05:28:29;101882.47;;;18.35;55.88
22830;BME280;11581;51.250;6.778;2023-04-30T05:30:55;101847.47;;;18.65;54.09
22830;BME280;11581;51.250;6.778;2023-04-30T05:33:22;101836.47;;;19.13;53.18
22830;BME280;11581;51.250;6.778;2023-04-30T05:35:48;101843.56;;;19.75;52.20
22830;BME280;11581;51.250;6.778;2023-04-30T05:38:15;101786.44;;;19.85;50.52
22830;BME280;11581;51.250;6.778;2023-04-30T05:40:41;101774.50;;;20.46;50.20
22830;BME280;11581;51.250;6.778;2023-04-30T05:43:08;101748.69;;;20.79;48.86
22830;BME280;11581;51.250;6.778;2023-04-30T05:45:34;101894.38;;;22.27;47.18
22830;BME280;11581;51.250;6.778;2023-04-30T05:48:01;101788.94;;;22.16;45.96
22830;BME280;11581;51.250;6.778;2023-04-30T05:50:27;101890.09;;;23.41;44.97
22830;BME280;11581;51.250;6.778;2023-04-30T05:52:54;101898.66;;;23.98;44.00
22830;BME280;11581;51.250;6.778;2023-04-30T05:55:20;101772.88;;;23.82;42.73
22830;BME280;11581;51.250;6.778;2023-04-30T05:57:47;101840.75;;;24.81;41.52
22830;BME280;11581;51.250;6.778;2023-04-30T06:00:13;101893.75;;;25.62;40.47
22830;BME280;11581;51.250;6.778;2023-04-30T06:02:40;101868.13;;;26.00;39.42
22830;BME280;11581;51.250;6.778;2023-04-30T06:05:07;101834.34;;;26.13;39.01
22830;BME280;11581;51.250;6.778;2023-04-30T06:07:33;101875.25;;;26.93;38.34
22830;BME280;11581;51.250;6.778;2023-04-30T06:10:00;101698.22;;;26.40;36.64
22830;BME280;11581;51.250;6.778;2023-04-30T06:12:26;101812.69;;;27.44;35.61
22830;BME280;11581;51.250;6.778;2023-04-30T06:14:53;101893.34;;;28.31;34.58
22830;BME280;11581;51.250;6.778;2023-04-30T06:17:20;101761.66;;;27.84;34.45
22830;BME280;11581;51.250;6.778;2023-04-30T06:19:46;101793.66;;;28.37;33.52
22830;BME280;11581;51.250;6.778;2023-04-30T06:22:12;101824.28;;;28.91;32.91
22830;BME280;11581;51.250;6.778;2023-04-30T06:24:39;101890.50;;;29.57;32.08
22830;BME280;11581;51.250;6.778;2023-04-30T06:27:05;101810.41;;;29.37;31.54
22830;BME280;11581;51.250;6.778;2023-04-30T06:29:32;101804.28;;;29.47;30.86
22830;BME280;11581;51.250;6.778;2023-04-30T06:31:58;101883.63;;;30.16;30.59
22830;BME280;11581;51.250;6.778;2023-04-30T06:34:25;101879.00;;;30.33;30.32
22830;BME280;11581;51.250;6.778;2023-04-30T06:36:51;101887.00;;;30.51;29.84
22830;BME280;11581;51.250;6.778;2023-04-30T06:39:17;101878.44;;;30.69;29.69
22830;BME280;11581;51.250;6.778;2023-04-30T06:41:44;101827.94;;;30.59;29.16
22830;BME280;11581;51.250;6.778;2023-04-30T06:44:12;101845.22;;;30.92;29.20
22830;BME280;11581;51.250;6.778;2023-04-30T06:46:39;101814.81;;;31.04;29.10
22830;BME280;11581;51.250;6.778;2023-04-30T06:49:06;101873.44;;;31.69;28.66
22830;BME280;11581;51.250;6.778;2023-04-30T06:51:32;101846.81;;;31.79;28.64
22830;BME280;11581;51.250;6.778;2023-04-30T06:53:59;101737.84;;;31.45;27.24
22830;BME280;11581;51.250;6.778;2023-04-30T06:56:25;101733.53;;;31.59;26.73
22830;BME280;11581;51.250;6.778;2023-04-30T06:58:52;101795.78;;;32.08;26.51
22830;BME280;11581;51.250;6.778;2023-04-30T07:01:18;101887.34;;;32.74;25.66
22830;BME280;11581;51.250;6.778;2023-04-30T07:03:44;101875.78;;;32.82;25.80
22830;BME280;11581;51.250;6.778;2023-04-30T07:06:11;101805.41;;;32.43;25.55
22830;BME280;11581;51.250;6.778;2023-04-30T07:08:37;101831.81;;;32.70;24.99
22830;BME280;11581;51.250;6.778;2023-04-30T07:11:05;101870.47;;;33.12;25.06
22830;BME280;11581;51.250;6.778;2023-04-30T07:13:32;101824.63;;;32.74;24.56
22830;BME280;11581;51.250;6.778;2023-04-30T07:15:58;101828.94;;;33.02;24.75
22830;BME280;11581;51.250;6.778;2023-04-30T07:18:25;101871.06;;;33.29;24.48
22830;BME280;11581;51.250;6.778;2023-04-30T07:20:51;101673.84;;;32.17;24.32
22830;BME280;11581;51.250;6.778;2023-04-30T07:23:18;101648.84;;;31.50;24.30
22830;BME280;11581;51.250;6.778;2023-04-30T07:25:45;101340.13;;;29.93;24.09
22830;BME280;11581;51.250;6.778;2023-04-30T07:28:11;101582.31;;;31.36;23.73
22830;BME280;11581;51.250;6.778;2023-04-30T07:30:38;101850.66;;;33.35;24.16
22830;BME280;11581;51.250;6.778;2023-04-30T07:33:05;101824.34;;;33.27;24.12
22830;BME280;11581;51.250;6.778;2023-04-30T07:35:32;101572.22;;;31.98;24.09
22830;BME280;11581;51.250;6.778;2023-04-30T07:37:58;101870.44;;;34.08;23.51
22830;BME280;11581;51.250;6.778;2023-04-30T07:40:25;101667.34;;;33.34;23.42
22830;BME280;11581;51.250;6.778;2023-04-30T07:42:51;101836.06;;;34.65;22.96
22830;BME280;11581;51.250;6.778;2023-04-30T07:45:18;101713.47;;;34.29;23.12
22830;BME280;11581;51.250;6.778;2023-04-30T07:47:44;101837.97;;;35.48;22.85
22830;BME280;11581;51.250;6.778;2023-04-30T07:50:11;101577.78;;;34.34;22.35
22830;BME280;11581;51.250;6.778;2023-04-30T07:52:39;101730.22;;;35.65;21.36
22830;BME280;11581;51.250;6.778;2023-04-30T07:55:06;101822.09;;;36.59;21.19
22830;BME280;11581;51.250;6.778;2023-04-30T07:57:33;101860.06;;;37.16;20.80
22830;BME280;11581;51.250;6.778;2023-04-30T07:59:59;101860.50;;;37.46;20.39
22830;BME280;11581;51.250;6.778;2023-04-30T08:02:26;101847.19;;;37.62;20.34
22830;BME280;11581;51.250;6.778;2023-04-30T08:04:52;101836.78;;;37.86;19.87
22830;BME280;11581;51.250;6.778;2023-04-30T08:07:19;101859.25;;;38.27;19.54
22830;BME280;11581;51.250;6.778;2023-04-30T08:09:46;101774.16;;;38.02;19.41
22830;BME280;11581;51.250;6.778;2023-04-30T08:12:12;101778.66;;;38.30;19.05
22830;BME280;11581;51.250;6.778;2023-04-30T08:14:39;101759.59;;;38.37;18.83
22830;BME280;11581;51.250;6.778;2023-04-30T08:17:05;101672.88;;;37.98;18.83
22830;BME280;11581;51.250;6.778;2023-04-30T08:19:32;101865.34;;;39.28;18.41
22830;BME280;11581;51.250;6.778;2023-04-30T08:21:58;101830.34;;;39.22;18.44
22830;BME280;11581;51.250;6.778;2023-04-30T08:24:25;101859.72;;;39.55;18.08
22830;BME280;11581;51.250;6.778;2023-04-30T08:26:52;101850.84;;;39.53;17.66
22830;BME280;11581;51.250;6.778;2023-04-30T08:29:19;101860.88;;;39.90;17.72
22830;BME280;11581;51.250;6.778;2023-04-30T08:31:45;101852.91;;;40.06;17.43
22830;BME280;11581;51.250;6.778;2023-04-30T08:34:12;101760.78;;;39.61;17.22
22830;BME280;11581;51.250;6.778;2023-04-30T08:36:38;101817.75;;;40.05;17.04
22830;BME280;11581;51.250;6.778;2023-04-30T08:39:05;101851.16;;;40.32;16.73
22830;BME280;11581;51.250;6.778;2023-04-30T08:41:32;101704.00;;;39.44;16.41
22830;BME280;11581;51.250;6.778;2023-04-30T08:44:02;101768.03;;;39.84;15.89
22830;BME280;11581;51.250;6.778;2023-04-30T08:46:31;101852.81;;;40.33;15.72
22830;BME280;11581;51.250;6.778;2023-04-30T08:48:59;101703.31;;;39.38;16.41
22830;BME280;11581;51.250;6.778;2023-04-30T08:51:26;101679.03;;;39.03;16.40
22830;BME280;11581;51.250;6.778;2023-04-30T08:53:54;101703.91;;;39.35;16.30
22830;BME280;11581;51.250;6.778;2023-04-30T08:56:22;101829.31;;;40.12;16.16
22830;BME280;11581;51.250;6.778;2023-04-30T08:58:49;101846.94;;;40.21;15.98
22830;BME280;11581;51.250;6.778;2023-04-30T09:01:15;101758.16;;;39.65;15.71
22830;BME280;11581;51.250;6.778;2023-04-30T09:03:42;101849.81;;;40.07;15.82
22830;BME280;11581;51.250;6.778;2023-04-30T09:06:08;101839.63;;;40.03;15.68
22830;BME280;11581;51.250;6.778;2023-04-30T09:08:43;101785.25;;;39.64;15.38
22830;BME280;11581;51.250;6.778;2023-04-30T09:11:24;101832.03;;;40.03;15.77
22830;BME280;11581;51.250;6.778;2023-04-30T09:13:52;101822.34;;;40.01;15.91
22830;BME280;11581;51.250;6.778;2023-04-30T09:16:19;101781.97;;;39.84;15.67
22830;BME280;11581;51.250;6.778;2023-04-30T09:18:46;101823.44;;;40.22;15.36
22830;BME280;11581;51.250;6.778;2023-04-30T09:21:13;101834.88;;;40.34;15.31
22830;BME280;11581;51.250;6.778;2023-04-30T09:23:56;101850.00;;;40.33;15.75
22830;BME280;11581;51.250;6.778;2023-04-30T09:28:57;101833.63;;;40.18;15.03
22830;BME280;11581;51.250;6.778;2023-04-30T09:31:24;101826.66;;;39.84;15.05
22830;BME280;11581;51.250;6.778;2023-04-30T09:33:51;101623.09;;;38.24;15.05
22830;BME280;11581;51.250;6.778;2023-04-30T09:36:19;101731.09;;;38.40;15.23
22830;BME280;11581;51.250;6.778;2023-04-30T09:38:46;101814.94;;;38.57;15.47
22830;BME280;11581;51.250;6.778;2023-04-30T09:41:26;101814.13;;;38.11;16.02
22830;BME280;11581;51.250;6.778;2023-04-30T09:43:56;101820.19;;;37.81;16.01
22830;BME280;11581;51.250;6.778;2023-04-30T09:46:35;101692.13;;;36.93;16.38
22830;BME280;11581;51.250;6.778;2023-04-30T09:49:05;101803.63;;;37.34;16.08
22830;BME280;11581;51.250;6.778;2023-04-30T09:51:32;101795.66;;;37.09;17.30
22830;BME280;11581;51.250;6.778;2023-04-30T09:54:01;101747.88;;;36.60;16.81
22830;BME280;11581;51.250;6.778;2023-04-30T09:56:28;101785.00;;;36.69;17.22
22830;BME280;11581;51.250;6.778;2023-04-30T09:58:57;101795.06;;;36.65;17.45
22830;BME280;11581;51.250;6.778;2023-04-30T10:01:25;101799.34;;;36.52;17.74
22830;BME280;11581;51.250;6.778;2023-04-30T10:03:52;101761.06;;;36.21;17.83
22830;BME280;11581;51.250;6.778;2023-04-30T10:06:22;101797.69;;;36.28;17.04
22830;BME280;11581;51.250;6.778;2023-04-30T10:08:55;101774.59;;;36.03;17.00
22830;BME280;11581;51.250;6.778;2023-04-30T10:11:25;101774.84;;;35.73;17.16
22830;BME280;11581;51.250;6.778;2023-04-30T10:14:01;101788.47;;;35.65;18.05
22830;BME280;11581;51.250;6.778;2023-04-30T10:19:06;101770.59;;;35.47;18.25
22830;BME280;11581;51.250;6.778;2023-04-30T10:21:39;101691.22;;;35.13;18.14
22830;BME280;11581;51.250;6.778;2023-04-30T10:24:08;101787.00;;;35.77;18.01
22830;BME280;11581;51.250;6.778;2023-04-30T10:26:36;101775.88;;;35.82;17.81
22830;BME280;11581;51.250;6.778;2023-04-30T10:29:02;101787.81;;;35.78;17.95
22830;BME280;11581;51.250;6.778;2023-04-30T10:31:29;101777.59;;;35.73;17.99
22830;BME280;11581;51.250;6.778;2023-04-30T10:34:08;101731.16;;;35.50;17.96
22830;BME280;11581;51.250;6.778;2023-04-30T10:36:49;101721.56;;;35.38;18.39
22830;BME280;11581;51.250;6.778;2023-04-30T10:39:24;101761.72;;;35.79;18.17
22830;BME280;11581;51.250;6.778;2023-04-30T10:42:01;101772.09;;;36.02;18.09
22830;BME280;11581;51.250;6.778;2023-04-30T10:44:31;101759.06;;;36.31;17.21
22830;BME280;11581;51.250;6.778;2023-04-30T10:46:59;101767.91;;;36.57;17.15
22830;BME280;11581;51.250;6.778;2023-04-30T10:49:27;101682.03;;;36.37;17.32
22830;BME280;11581;51.250;6.778;2023-04-30T10:51:53;101753.38;;;36.88;16.80
22830;BME280;11581;51.250;6.778;2023-04-30T10:54:27;101720.09;;;36.83;16.96
22830;BME280;11581;51.250;6.778;2023-04-30T10:57:11;101667.75;;;36.67;17.24
22830;BME280;11581;51.250;6.778;2023-04-30T11:00:17;101722.59;;;37.40;18.15
22830;BME280;11581;51.250;6.778;2023-04-30T11:02:45;101610.25;;;36.86;16.99
22830;BME280;11581;51.250;6.778;2023-04-30T11:05:16;101703.03;;;37.45;16.04
22830;BME280;11581;51.250;6.778;2023-04-30T11:07:56;101725.28;;;37.64;16.35
22830;BME280;11581;51.250;6.778;2023-04-30T11:10:31;101596.88;;;36.69;16.66
22830;BME280;11581;51.250;6.778;2023-04-30T11:13:03;101576.81;;;36.54;16.09
22830;BME280;11581;51.250;6.778;2023-04-30T11:15:38;101716.59;;;37.33;16.38
22830;BME280;11581;51.250;6.778;2023-04-30T11:18:06;101640.22;;;36.89;16.58
22830;BME280;11581;51.250;6.778;2023-04-30T11:20:38;101673.44;;;36.99;16.24
22830;BME280;11581;51.250;6.778;2023-04-30T11:25:40;101708.59;;;37.08;16.29
22830;BME280;11581;51.250;6.778;2023-04-30T11:28:13;101671.88;;;36.51;16.24
22830;BME280;11581;51.250;6.778;2023-04-30T11:30:59;101647.00;;;36.41;17.19
22830;BME280;11581;51.250;6.778;2023-04-30T11:33:30;101708.13;;;36.83;16.06
22830;BME280;11581;51.250;6.778;2023-04-30T11:35:58;101656.31;;;36.50;16.17
22830;BME280;11581;51.250;6.778;2023-04-30T11:38:44;101617.69;;;36.06;16.99
22830;BME280;11581;51.250;6.778;2023-04-30T11:41:11;101710.22;;;36.25;16.11
22830;BME280;11581;51.250;6.778;2023-04-30T11:43:38;101695.84;;;35.94;16.52
22830;BME280;11581;51.250;6.778;2023-04-30T11:46:06;101688.94;;;35.58;16.61
22830;BME280;11581;51.250;6.778;2023-04-30T11:48:40;101669.94;;;35.03;16.75
22830;BME280;11581;51.250;6.778;2023-04-30T11:51:22;101687.16;;;35.00;17.10
22830;BME280;11581;51.250;6.778;2023-04-30T11:53:51;101619.34;;;34.29;16.99
22830;BME280;11581;51.250;6.778;2023-04-30T11:56:22;101691.31;;;34.39;16.84
22830;BME280;11581;51.250;6.778;2023-04-30T11:58:51;101698.59;;;34.00;17.13
22830;BME280;11581;51.250;6.778;2023-04-30T12:01:19;101652.69;;;33.29;17.31
22830;BME280;11581;51.250;6.778;2023-04-30T12:03:49;101640.44;;;32.70;17.36
22830;BME280;11581;51.250;6.778;2023-04-30T12:06:24;101633.00;;;32.13;18.18
22830;BME280;11581;51.250;6.778;2023-04-30T12:08:56;101568.16;;;31.23;18.47
22830;BME280;11581;51.250;6.778;2023-04-30T12:11:27;101530.84;;;30.52;19.49
22830;BME280;11581;51.250;6.778;2023-04-30T12:13:57;101659.88;;;31.23;19.90
22830;BME280;11581;51.250;6.778;2023-04-30T12:16:37;101655.38;;;31.12;20.38
22830;BME280;11581;51.250;6.778;2023-04-30T12:19:03;101657.00;;;31.08;20.13
22830;BME280;11581;51.250;6.778;2023-04-30T12:21:30;101614.81;;;30.76;19.98
22830;BME280;11581;51.250;6.778;2023-04-30T12:23:57;101608.63;;;30.69;20.82
22830;BME280;11581;51.250;6.778;2023-04-30T12:26:33;101574.88;;;30.52;20.53
22830;BME280;11581;51.250;6.778;2023-04-30T12:29:02;101574.69;;;30.59;20.86
22830;BME280;11581;51.250;6.778;2023-04-30T12:31:31;101560.75;;;30.70;20.07
22830;BME280;11581;51.250;6.778;2023-04-30T12:34:03;101651.28;;;31.15;20.29
22830;BME280;11581;51.250;6.778;2023-04-30T12:36:30;101655.84;;;31.04;20.40
22830;BME280;11581;51.250;6.778;2023-04-30T12:41:44;101647.03;;;30.76;20.14
22830;BME280;11581;51.250;6.778;2023-04-30T12:44:30;101649.78;;;30.54;20.61
22830;BME280;11581;51.250;6.778;2023-04-30T12:46:57;101644.53;;;30.31;20.80
22830;BME280;11581;51.250;6.778;2023-04-30T12:49:32;101641.16;;;30.07;20.73
22830;BME280;11581;51.250;6.778;2023-04-30T12:52:01;101502.97;;;29.03;21.07
22830;BME280;11581;51.250;6.778;2023-04-30T12:54:30;101525.13;;;29.13;21.14
22830;BME280;11581;51.250;6.778;2023-04-30T12:56:59;101636.00;;;29.73;21.23
22830;BME280;11581;51.250;6.778;2023-04-30T12:59:27;101657.91;;;29.68;21.12
22830;BME280;11581;51.250;6.778;2023-04-30T13:01:53;101544.25;;;29.08;21.36
22830;BME280;11581;51.250;6.778;2023-04-30T13:04:20;101640.56;;;29.51;21.16
22830;BME280;11581;51.250;6.778;2023-04-30T13:06:47;101616.19;;;29.38;21.38
22830;BME280;11581;51.250;6.778;2023-04-30T13:09:14;101592.19;;;29.17;21.72
22830;BME280;11581;51.250;6.778;2023-04-30T13:11:41;101623.84;;;29.36;21.79
22830;BME280;11581;51.250;6.778;2023-04-30T13:14:07;101628.56;;;29.40;21.68
22830;BME280;11581;51.250;6.778;2023-04-30T13:16:35;101437.59;;;28.22;21.35
22830;BME280;11581;51.250;6.778;2023-04-30T13:19:02;101523.56;;;28.56;21.24
22830;BME280;11581;51.250;6.778;2023-04-30T13:21:29;101574.97;;;28.60;21.48